sensor_id;sensor_type;location;lat;lon;timestamp;temperature;humidity
71304;DHT22;59091;47.446;19.148;2024-01-16T00:00:54;2.59;63.29
71304;DHT22;59091;47.446;19.148;2024-01-16T00:03:19;2.59;63.18
71304;DHT22;59091;47.446;19.148;2024-01-16T00:05:45;2.71;63.20
71304;DHT22;59091;47.446;19.148;2024-01-16T00:08:10;2.62;63.78
71304;DHT22;59091;47.446;19.148;2024-01-16T00:10:36;2.48;64.32
71304;DHT22;59091;47.446;19.148;2024-01-16T00:13:01;2.51;64.57
71304;DHT22;59091;47.446;19.148;2024-01-16T00:15:27;2.37;64.96
71304;DHT22;59091;47.446;19.148;2024-01-16T00:17:52;2.44;64.88
71304;DHT22;59091;47.446;19.148;2024-01-16T00:20:18;2.54;64.80
71304;DHT22;59091;47.446;19.148;2024-01-16T00:22:44;2.62;64.59
71304;DHT22;59091;47.446;19.148;2024-01-16T00:25:09;2.42;65.22
71304;DHT22;59091;47.446;19.148;2024-01-16T00:27:34;2.38;65.16
71304;DHT22;59091;47.446;19.148;2024-01-16T00:30:00;2.50;65.43
71304;DHT22;59091;47.446;19.148;2024-01-16T00:32:25;2.38;65.73
71304;DHT22;59091;47.446;19.148;2024-01-16T00:34:51;2.18;66.34
71304;DHT22;59091;47.446;19.148;2024-01-16T00:37:17;2.28;66.42
71304;DHT22;59091;47.446;19.148;2024-01-16T00:39:42;2.33;66.16
71304;DHT22;59091;47.446;19.148;2024-01-16T00:42:08;2.44;65.93
71304;DHT22;59091;47.446;19.148;2024-01-16T00:44:33;2.28;65.99
71304;DHT22;59091;47.446;19.148;2024-01-16T00:47:00;2.28;65.94
71304;DHT22;59091;47.446;19.148;2024-01-16T00:49:27;2.37;65.79
71304;DHT22;59091;47.446;19.148;2024-01-16T00:51:53;2.30;65.64
71304;DHT22;59091;47.446;19.148;2024-01-16T00:54:18;2.17;66.28
71304;DHT22;59091;47.446;19.148;2024-01-16T00:56:44;2.11;66.47
71304;DHT22;59091;47.446;19.148;2024-01-16T00:59:09;2.13;66.64
71304;DHT22;59091;47.446;19.148;2024-01-16T01:01:37;1.90;67.52
71304;DHT22;59091;47.446;19.148;2024-01-16T01:04:03;2.02;67.34
71304;DHT22;59091;47.446;19.148;2024-01-16T01:06:28;1.89;67.78
71304;DHT22;59091;47.446;19.148;2024-01-16T01:08:54;1.79;68.20
71304;DHT22;59091;47.446;19.148;2024-01-16T01:11:19;1.76;68.06
71304;DHT22;59091;47.446;19.148;2024-01-16T01:13:44;1.99;67.39
71304;DHT22;59091;47.446;19.148;2024-01-16T01:16:10;2.05;66.87
71304;DHT22;59091;47.446;19.148;2024-01-16T01:18:35;2.11;66.64
71304;DHT22;59091;47.446;19.148;2024-01-16T01:21:01;2.07;66.70
71304;DHT22;59091;47.446;19.148;2024-01-16T01:23:26;2.06;66.74
71304;DHT22;59091;47.446;19.148;2024-01-16T01:25:51;2.13;66.57
71304;DHT22;59091;47.446;19.148;2024-01-16T01:28:17;2.18;66.46
71304;DHT22;59091;47.446;19.148;2024-01-16T01:30:42;2.06;66.38
71304;DHT22;59091;47.446;19.148;2024-01-16T01:33:08;2.07;66.39
71304;DHT22;59091;47.446;19.148;2024-01-16T01:35:33;2.13;66.22
71304;DHT22;59091;47.446;19.148;2024-01-16T01:37:59;2.17;65.58
71304;DHT22;59091;47.446;19.148;2024-01-16T01:40:24;2.27;65.85
71304;DHT22;59091;47.446;19.148;2024-01-16T01:42:50;2.18;65.42
71304;DHT22;59091;47.446;19.148;2024-01-16T01:45:15;2.26;65.00
71304;DHT22;59091;47.446;19.148;2024-01-16T01:47:41;2.16;65.03
71304;DHT22;59091;47.446;19.148;2024-01-16T01:50:10;2.23;64.93
71304;DHT22;59091;47.446;19.148;2024-01-16T01:52:38;2.21;64.38
71304;DHT22;59091;47.446;19.148;2024-01-16T01:55:05;2.38;64.21
71304;DHT22;59091;47.446;19.148;2024-01-16T01:57:33;2.38;64.18
71304;DHT22;59091;47.446;19.148;2024-01-16T02:00:00;2.26;64.14
71304;DHT22;59091;47.446;19.148;2024-01-16T02:02:26;2.33;64.47
71304;DHT22;59091;47.446;19.148;2024-01-16T02:04:52;2.40;64.11
71304;DHT22;59091;47.446;19.148;2024-01-16T02:07:17;2.27;64.48
71304;DHT22;59091;47.446;19.148;2024-01-16T02:09:43;2.45;64.24
71304;DHT22;59091;47.446;19.148;2024-01-16T02:12:09;2.38;64.17
71304;DHT22;59091;47.446;19.148;2024-01-16T02:14:34;2.33;64.63
71304;DHT22;59091;47.446;19.148;2024-01-16T02:16:59;2.09;64.95
71304;DHT22;59091;47.446;19.148;2024-01-16T02:19:25;2.31;64.44
71304;DHT22;59091;47.446;19.148;2024-01-16T02:21:53;2.20;64.57
71304;DHT22;59091;47.446;19.148;2024-01-16T02:24:20;2.24;64.83
71304;DHT22;59091;47.446;19.148;2024-01-16T02:26:45;2.07;65.27
71304;DHT22;59091;47.446;19.148;2024-01-16T02:29:11;2.06;65.24
71304;DHT22;59091;47.446;19.148;2024-01-16T02:31:36;2.05;65.29
71304;DHT22;59091;47.446;19.148;2024-01-16T02:34:02;2.11;65.48
71304;DHT22;59091;47.446;19.148;2024-01-16T02:36:29;1.97;65.69
71304;DHT22;59091;47.446;19.148;2024-01-16T02:38:55;1.99;65.75
71304;DHT22;59091;47.446;19.148;2024-01-16T02:41:21;1.89;65.71
71304;DHT22;59091;47.446;19.148;2024-01-16T02:43:46;1.77;66.44
71304;DHT22;59091;47.446;19.148;2024-01-16T02:46:13;1.90;66.15
71304;DHT22;59091;47.446;19.148;2024-01-16T02:48:38;1.92;65.87
71304;DHT22;59091;47.446;19.148;2024-01-16T02:51:04;1.85;65.78
71304;DHT22;59091;47.446;19.148;2024-01-16T02:53:30;1.80;66.29
71304;DHT22;59091;47.446;19.148;2024-01-16T02:55:56;1.80;66.43
71304;DHT22;59091;47.446;19.148;2024-01-16T02:58:28;1.73;66.40
71304;DHT22;59091;47.446;19.148;2024-01-16T03:00:54;1.73;66.46
71304;DHT22;59091;47.446;19.148;2024-01-16T03:03:19;1.70;66.39
71304;DHT22;59091;47.446;19.148;2024-01-16T03:05:45;1.90;66.21
71304;DHT22;59091;47.446;19.148;2024-01-16T03:08:11;1.73;66.28
71304;DHT22;59091;47.446;19.148;2024-01-16T03:10:36;1.68;66.52
71304;DHT22;59091;47.446;19.148;2024-01-16T03:13:02;1.52;66.73
71304;DHT22;59091;47.446;19.148;2024-01-16T03:15:28;1.58;66.66
71304;DHT22;59091;47.446;19.148;2024-01-16T03:17:55;1.46;66.90
71304;DHT22;59091;47.446;19.148;2024-01-16T03:20:20;1.56;66.58
71304;DHT22;59091;47.446;19.148;2024-01-16T03:22:48;1.48;66.86
71304;DHT22;59091;47.446;19.148;2024-01-16T03:25:14;1.45;66.80
71304;DHT22;59091;47.446;19.148;2024-01-16T03:27:39;1.54;66.61
71304;DHT22;59091;47.446;19.148;2024-01-16T03:30:05;1.44;66.63
71304;DHT22;59091;47.446;19.148;2024-01-16T03:32:31;1.51;66.50
71304;DHT22;59091;47.446;19.148;2024-01-16T03:34:57;1.60;66.14
71304;DHT22;59091;47.446;19.148;2024-01-16T03:37:22;1.58;66.14
71304;DHT22;59091;47.446;19.148;2024-01-16T03:39:48;1.69;65.71
71304;DHT22;59091;47.446;19.148;2024-01-16T03:42:15;1.72;65.62
71304;DHT22;59091;47.446;19.148;2024-01-16T03:44:41;1.63;65.62
71304;DHT22;59091;47.446;19.148;2024-01-16T03:47:07;1.58;65.62
71304;DHT22;59091;47.446;19.148;2024-01-16T03:49:33;1.60;65.69
71304;DHT22;59091;47.446;19.148;2024-01-16T03:51:58;1.60;65.33
71304;DHT22;59091;47.446;19.148;2024-01-16T03:54:24;1.65;65.46
71304;DHT22;59091;47.446;19.148;2024-01-16T03:56:50;1.63;65.13
71304;DHT22;59091;47.446;19.148;2024-01-16T03:59:16;1.62;65.31
71304;DHT22;59091;47.446;19.148;2024-01-16T04:01:41;1.65;65.23
71304;DHT22;59091;47.446;19.148;2024-01-16T04:04:09;1.65;65.35
71304;DHT22;59091;47.446;19.148;2024-01-16T04:06:35;1.77;64.83
71304;DHT22;59091;47.446;19.148;2024-01-16T04:09:01;1.69;65.08
71304;DHT22;59091;47.446;19.148;2024-01-16T04:11:26;1.80;64.69
71304;DHT22;59091;47.446;19.148;2024-01-16T04:13:52;1.69;64.77
71304;DHT22;59091;47.446;19.148;2024-01-16T04:16:17;1.75;64.74
71304;DHT22;59091;47.446;19.148;2024-01-16T04:18:43;1.70;64.85
71304;DHT22;59091;47.446;19.148;2024-01-16T04:21:09;1.76;64.87
71304;DHT22;59091;47.446;19.148;2024-01-16T04:23:34;1.63;64.75
71304;DHT22;59091;47.446;19.148;2024-01-16T04:26:00;1.52;65.04
71304;DHT22;59091;47.446;19.148;2024-01-16T04:28:25;1.58;64.97
71304;DHT22;59091;47.446;19.148;2024-01-16T04:30:51;1.48;65.13
71304;DHT22;59091;47.446;19.148;2024-01-16T04:33:17;1.46;65.15
71304;DHT22;59091;47.446;19.148;2024-01-16T04:35:42;1.49;65.01
71304;DHT22;59091;47.446;19.148;2024-01-16T04:38:07;1.42;65.15
71304;DHT22;59091;47.446;19.148;2024-01-16T04:40:33;1.42;65.06
71304;DHT22;59091;47.446;19.148;2024-01-16T04:42:59;1.46;64.88
71304;DHT22;59091;47.446;19.148;2024-01-16T04:45:25;1.42;64.73
71304;DHT22;59091;47.446;19.148;2024-01-16T04:47:50;1.41;64.66
71304;DHT22;59091;47.446;19.148;2024-01-16T04:50:15;1.34;64.74
71304;DHT22;59091;47.446;19.148;2024-01-16T04:52:41;1.31;64.65
71304;DHT22;59091;47.446;19.148;2024-01-16T04:55:06;1.49;64.46
71304;DHT22;59091;47.446;19.148;2024-01-16T04:57:33;1.54;64.28
71304;DHT22;59091;47.446;19.148;2024-01-16T04:59:58;1.49;64.13
71304;DHT22;59091;47.446;19.148;2024-01-16T05:02:24;1.46;64.01
71304;DHT22;59091;47.446;19.148;2024-01-16T05:04:49;1.52;63.89
71304;DHT22;59091;47.446;19.148;2024-01-16T05:07:17;1.49;63.78
71304;DHT22;59091;47.446;19.148;2024-01-16T05:09:45;1.42;63.77
71304;DHT22;59091;47.446;19.148;2024-01-16T05:12:10;1.60;63.49
71304;DHT22;59091;47.446;19.148;2024-01-16T05:14:35;1.44;63.47
71304;DHT22;59091;47.446;19.148;2024-01-16T05:17:01;1.44;63.42
71304;DHT22;59091;47.446;19.148;2024-01-16T05:19:27;1.55;63.05
71304;DHT22;59091;47.446;19.148;2024-01-16T05:21:53;1.66;62.37
71304;DHT22;59091;47.446;19.148;2024-01-16T05:24:18;1.73;62.47
71304;DHT22;59091;47.446;19.148;2024-01-16T05:26:43;1.70;62.39
71304;DHT22;59091;47.446;19.148;2024-01-16T05:29:09;1.72;62.84
71304;DHT22;59091;47.446;19.148;2024-01-16T05:31:42;1.99;70.86
71304;DHT22;59091;47.446;19.148;2024-01-16T05:34:08;1.90;61.95
71304;DHT22;59091;47.446;19.148;2024-01-16T05:36:33;1.85;61.95
71304;DHT22;59091;47.446;19.148;2024-01-16T05:38:59;1.75;62.09
71304;DHT22;59091;47.446;19.148;2024-01-16T05:41:24;1.72;62.37
71304;DHT22;59091;47.446;19.148;2024-01-16T05:43:50;1.66;62.33
71304;DHT22;59091;47.446;19.148;2024-01-16T05:46:15;1.58;62.22
71304;DHT22;59091;47.446;19.148;2024-01-16T05:48:40;1.55;62.34
71304;DHT22;59091;47.446;19.148;2024-01-16T05:51:06;1.59;62.16
71304;DHT22;59091;47.446;19.148;2024-01-16T05:53:31;1.65;62.07
71304;DHT22;59091;47.446;19.148;2024-01-16T05:55:57;1.60;62.23
71304;DHT22;59091;47.446;19.148;2024-01-16T05:58:22;1.59;61.91
71304;DHT22;59091;47.446;19.148;2024-01-16T06:00:48;1.70;62.09
71304;DHT22;59091;47.446;19.148;2024-01-16T06:03:13;1.89;64.25
71304;DHT22;59091;47.446;19.148;2024-01-16T06:05:38;1.80;61.31
71304;DHT22;59091;47.446;19.148;2024-01-16T06:08:04;1.75;61.30
71304;DHT22;59091;47.446;19.148;2024-01-16T06:10:30;2.14;68.51
71304;DHT22;59091;47.446;19.148;2024-01-16T06:12:55;2.11;61.66
71304;DHT22;59091;47.446;19.148;2024-01-16T06:15:20;2.03;60.78
71304;DHT22;59091;47.446;19.148;2024-01-16T06:17:46;1.80;61.49
71304;DHT22;59091;47.446;19.148;2024-01-16T06:20:11;1.66;61.42
71304;DHT22;59091;47.446;19.148;2024-01-16T06:22:37;1.72;61.55
71304;DHT22;59091;47.446;19.148;2024-01-16T06:25:02;1.65;61.69
71304;DHT22;59091;47.446;19.148;2024-01-16T06:27:28;1.52;61.85
71304;DHT22;59091;47.446;19.148;2024-01-16T06:29:53;1.41;61.83
71304;DHT22;59091;47.446;19.148;2024-01-16T06:32:19;1.44;62.07
71304;DHT22;59091;47.446;19.148;2024-01-16T06:34:44;1.39;61.91
71304;DHT22;59091;47.446;19.148;2024-01-16T06:37:10;1.48;61.77
71304;DHT22;59091;47.446;19.148;2024-01-16T06:39:36;1.49;61.79
71304;DHT22;59091;47.446;19.148;2024-01-16T06:42:03;1.30;61.40
71304;DHT22;59091;47.446;19.148;2024-01-16T06:44:30;1.36;61.54
71304;DHT22;59091;47.446;19.148;2024-01-16T06:46:55;1.35;61.29
71304;DHT22;59091;47.446;19.148;2024-01-16T06:49:20;1.75;64.14
71304;DHT22;59091;47.446;19.148;2024-01-16T06:51:46;1.58;60.61
71304;DHT22;59091;47.446;19.148;2024-01-16T06:54:11;1.79;60.54
71304;DHT22;59091;47.446;19.148;2024-01-16T06:56:37;1.93;61.59
71304;DHT22;59091;47.446;19.148;2024-01-16T06:59:02;1.83;59.78
71304;DHT22;59091;47.446;19.148;2024-01-16T07:01:28;1.59;59.69
71304;DHT22;59091;47.446;19.148;2024-01-16T07:03:53;1.59;59.95
71304;DHT22;59091;47.446;19.148;2024-01-16T07:06:19;1.79;60.95
71304;DHT22;59091;47.446;19.148;2024-01-16T07:08:44;1.77;59.88
71304;DHT22;59091;47.446;19.148;2024-01-16T07:11:10;1.82;59.91
71304;DHT22;59091;47.446;19.148;2024-01-16T07:13:38;1.95;61.35
71304;DHT22;59091;47.446;19.148;2024-01-16T07:16:04;1.86;59.14
71304;DHT22;59091;47.446;19.148;2024-01-16T07:18:29;1.89;58.82
71304;DHT22;59091;47.446;19.148;2024-01-16T07:20:55;1.96;58.57
71304;DHT22;59091;47.446;19.148;2024-01-16T07:23:20;2.17;67.74
71304;DHT22;59091;47.446;19.148;2024-01-16T07:25:45;2.13;60.02
71304;DHT22;59091;47.446;19.148;2024-01-16T07:28:11;2.24;59.14
71304;DHT22;59091;47.446;19.148;2024-01-16T07:30:37;2.07;58.33
71304;DHT22;59091;47.446;19.148;2024-01-16T07:33:03;2.71;67.51
71304;DHT22;59091;47.446;19.148;2024-01-16T07:35:29;2.48;57.29
71304;DHT22;59091;47.446;19.148;2024-01-16T07:37:54;2.50;57.40
71304;DHT22;59091;47.446;19.148;2024-01-16T07:40:19;2.52;57.32
71304;DHT22;59091;47.446;19.148;2024-01-16T07:42:45;2.33;57.30
71304;DHT22;59091;47.446;19.148;2024-01-16T07:45:11;2.27;57.26
71304;DHT22;59091;47.446;19.148;2024-01-16T07:47:36;2.41;56.94
71304;DHT22;59091;47.446;19.148;2024-01-16T07:50:02;2.55;56.68
71304;DHT22;59091;47.446;19.148;2024-01-16T07:52:27;2.87;66.42
71304;DHT22;59091;47.446;19.148;2024-01-16T07:54:53;2.89;56.19
71304;DHT22;59091;47.446;19.148;2024-01-16T07:57:19;2.87;56.04
71304;DHT22;59091;47.446;19.148;2024-01-16T07:59:44;3.02;55.44
71304;DHT22;59091;47.446;19.148;2024-01-16T08:02:10;3.13;55.46
71304;DHT22;59091;47.446;19.148;2024-01-16T08:04:35;3.23;54.76
71304;DHT22;59091;47.446;19.148;2024-01-16T08:07:01;3.22;54.26
71304;DHT22;59091;47.446;19.148;2024-01-16T08:09:27;3.29;54.38
71304;DHT22;59091;47.446;19.148;2024-01-16T08:11:53;3.47;54.39
71304;DHT22;59091;47.446;19.148;2024-01-16T08:14:18;3.33;53.88
71304;DHT22;59091;47.446;19.148;2024-01-16T08:16:43;3.49;53.82
71304;DHT22;59091;47.446;19.148;2024-01-16T08:19:09;3.64;53.34
71304;DHT22;59091;47.446;19.148;2024-01-16T08:21:34;3.54;54.11
71304;DHT22;59091;47.446;19.148;2024-01-16T08:24:00;3.53;53.88
71304;DHT22;59091;47.446;19.148;2024-01-16T08:26:25;3.64;53.86
71304;DHT22;59091;47.446;19.148;2024-01-16T08:28:51;3.69;53.50
71304;DHT22;59091;47.446;19.148;2024-01-16T08:31:17;3.84;52.49
71304;DHT22;59091;47.446;19.148;2024-01-16T08:33:44;3.94;52.06
71304;DHT22;59091;47.446;19.148;2024-01-16T08:36:09;4.06;51.79
71304;DHT22;59091;47.446;19.148;2024-01-16T08:38:34;3.98;51.44
71304;DHT22;59091;47.446;19.148;2024-01-16T08:41:00;4.13;51.67
71304;DHT22;59091;47.446;19.148;2024-01-16T08:43:25;4.26;50.86
71304;DHT22;59091;47.446;19.148;2024-01-16T08:45:51;4.02;49.80
71304;DHT22;59091;47.446;19.148;2024-01-16T08:48:16;4.12;50.55
71304;DHT22;59091;47.446;19.148;2024-01-16T08:50:42;4.12;49.72
71304;DHT22;59091;47.446;19.148;2024-01-16T08:53:07;4.15;49.56
71304;DHT22;59091;47.446;19.148;2024-01-16T08:55:33;4.09;49.50
71304;DHT22;59091;47.446;19.148;2024-01-16T08:57:58;4.22;49.21
71304;DHT22;59091;47.446;19.148;2024-01-16T09:00:24;4.21;49.29
71304;DHT22;59091;47.446;19.148;2024-01-16T09:02:49;4.46;48.57
71304;DHT22;59091;47.446;19.148;2024-01-16T09:05:15;4.60;48.18
71304;DHT22;59091;47.446;19.148;2024-01-16T09:07:41;4.53;48.64
71304;DHT22;59091;47.446;19.148;2024-01-16T09:10:07;4.59;47.46
71304;DHT22;59091;47.446;19.148;2024-01-16T09:12:33;4.60;47.23
71304;DHT22;59091;47.446;19.148;2024-01-16T09:14:58;4.69;47.62
71304;DHT22;59091;47.446;19.148;2024-01-16T09:17:24;4.87;46.63
71304;DHT22;59091;47.446;19.148;2024-01-16T09:19:51;4.91;46.62
71304;DHT22;59091;47.446;19.148;2024-01-16T09:22:17;5.01;46.51
71304;DHT22;59091;47.446;19.148;2024-01-16T09:24:43;4.85;46.50
71304;DHT22;59091;47.446;19.148;2024-01-16T09:27:09;5.05;45.68
71304;DHT22;59091;47.446;19.148;2024-01-16T09:29:35;4.97;45.86
71304;DHT22;59091;47.446;19.148;2024-01-16T09:32:01;5.07;45.92
71304;DHT22;59091;47.446;19.148;2024-01-16T09:34:26;4.69;45.12
71304;DHT22;59091;47.446;19.148;2024-01-16T09:36:52;4.67;45.28
71304;DHT22;59091;47.446;19.148;2024-01-16T09:39:17;4.48;45.72
71304;DHT22;59091;47.446;19.148;2024-01-16T09:41:44;4.53;45.33
71304;DHT22;59091;47.446;19.148;2024-01-16T09:44:10;4.69;45.06
71304;DHT22;59091;47.446;19.148;2024-01-16T09:46:37;4.59;45.37
71304;DHT22;59091;47.446;19.148;2024-01-16T09:49:04;4.52;45.88
71304;DHT22;59091;47.446;19.148;2024-01-16T09:51:29;4.62;45.40
71304;DHT22;59091;47.446;19.148;2024-01-16T09:53:55;4.67;45.37
71304;DHT22;59091;47.446;19.148;2024-01-16T09:56:22;4.56;45.07
71304;DHT22;59091;47.446;19.148;2024-01-16T09:58:57;4.57;45.12
71304;DHT22;59091;47.446;19.148;2024-01-16T10:01:26;4.64;45.33
71304;DHT22;59091;47.446;19.148;2024-01-16T10:03:52;4.90;44.93
71304;DHT22;59091;47.446;19.148;2024-01-16T10:06:20;4.84;44.37
71304;DHT22;59091;47.446;19.148;2024-01-16T10:08:46;4.83;45.27
71304;DHT22;59091;47.446;19.148;2024-01-16T10:11:11;4.77;44.50
71304;DHT22;59091;47.446;19.148;2024-01-16T10:13:37;4.90;44.68
71304;DHT22;59091;47.446;19.148;2024-01-16T10:16:03;4.69;44.53
71304;DHT22;59091;47.446;19.148;2024-01-16T10:18:29;4.93;45.59
71304;DHT22;59091;47.446;19.148;2024-01-16T10:20:59;4.67;44.49
71304;DHT22;59091;47.446;19.148;2024-01-16T10:23:29;4.76;45.17
71304;DHT22;59091;47.446;19.148;2024-01-16T10:26:07;4.93;44.07
71304;DHT22;59091;47.446;19.148;2024-01-16T10:28:37;5.01;43.75
71304;DHT22;59091;47.446;19.148;2024-01-16T10:31:04;5.00;43.96
71304;DHT22;59091;47.446;19.148;2024-01-16T10:33:30;5.11;43.96
71304;DHT22;59091;47.446;19.148;2024-01-16T10:36:13;5.32;44.07
71304;DHT22;59091;47.446;19.148;2024-01-16T10:38:41;5.30;43.19
71304;DHT22;59091;47.446;19.148;2024-01-16T10:43:37;5.24;43.40
71304;DHT22;59091;47.446;19.148;2024-01-16T10:46:16;5.04;43.13
71304;DHT22;59091;47.446;19.148;2024-01-16T10:49:01;5.25;42.99
71304;DHT22;59091;47.446;19.148;2024-01-16T10:51:27;5.23;42.87
71304;DHT22;59091;47.446;19.148;2024-01-16T10:53:58;5.13;43.69
71304;DHT22;59091;47.446;19.148;2024-01-16T10:56:24;5.31;44.08
71304;DHT22;59091;47.446;19.148;2024-01-16T10:59:01;5.25;43.12
71304;DHT22;59091;47.446;19.148;2024-01-16T11:01:31;5.17;42.83
71304;DHT22;59091;47.446;19.148;2024-01-16T11:03:57;5.14;42.91
71304;DHT22;59091;47.446;19.148;2024-01-16T11:06:24;5.14;43.13
71304;DHT22;59091;47.446;19.148;2024-01-16T11:08:50;5.14;43.33
71304;DHT22;59091;47.446;19.148;2024-01-16T11:11:17;5.10;43.90
71304;DHT22;59091;47.446;19.148;2024-01-16T11:13:43;5.24;43.44
71304;DHT22;59091;47.446;19.148;2024-01-16T11:16:11;5.11;43.45
71304;DHT22;59091;47.446;19.148;2024-01-16T11:18:36;5.28;45.94
71304;DHT22;59091;47.446;19.148;2024-01-16T11:21:07;5.20;43.79
71304;DHT22;59091;47.446;19.148;2024-01-16T11:23:34;5.10;44.05
71304;DHT22;59091;47.446;19.148;2024-01-16T11:26:08;5.21;43.92
71304;DHT22;59091;47.446;19.148;2024-01-16T11:28:45;5.52;54.87
71304;DHT22;59091;47.446;19.148;2024-01-16T11:31:33;5.54;42.90
71304;DHT22;59091;47.446;19.148;2024-01-16T11:34:00;5.54;43.14
71304;DHT22;59091;47.446;19.148;2024-01-16T11:36:51;5.67;42.77
71304;DHT22;59091;47.446;19.148;2024-01-16T11:39:25;5.65;43.40
71304;DHT22;59091;47.446;19.148;2024-01-16T11:41:52;5.55;42.66
71304;DHT22;59091;47.446;19.148;2024-01-16T11:47:04;5.75;42.22
71304;DHT22;59091;47.446;19.148;2024-01-16T11:49:29;5.67;42.23
71304;DHT22;59091;47.446;19.148;2024-01-16T11:51:58;5.77;42.52
71304;DHT22;59091;47.446;19.148;2024-01-16T11:54:24;5.92;42.07
71304;DHT22;59091;47.446;19.148;2024-01-16T11:57:19;6.18;41.49
71304;DHT22;59091;47.446;19.148;2024-01-16T12:00:05;6.30;40.97
71304;DHT22;59091;47.446;19.148;2024-01-16T12:02:53;6.17;41.41
71304;DHT22;59091;47.446;19.148;2024-01-16T12:05:20;5.97;41.61
71304;DHT22;59091;47.446;19.148;2024-01-16T12:07:50;6.05;41.50
71304;DHT22;59091;47.446;19.148;2024-01-16T12:10:20;6.07;41.59
71304;DHT22;59091;47.446;19.148;2024-01-16T12:12:47;5.85;41.36
71304;DHT22;59091;47.446;19.148;2024-01-16T12:15:14;5.93;42.00
71304;DHT22;59091;47.446;19.148;2024-01-16T12:17:58;5.97;41.59
71304;DHT22;59091;47.446;19.148;2024-01-16T12:20:29;6.07;41.37
71304;DHT22;59091;47.446;19.148;2024-01-16T12:22:59;6.03;40.64
71304;DHT22;59091;47.446;19.148;2024-01-16T12:25:29;6.13;41.12
71304;DHT22;59091;47.446;19.148;2024-01-16T12:27:56;6.20;40.27
71304;DHT22;59091;47.446;19.148;2024-01-16T12:30:23;6.20;39.75
71304;DHT22;59091;47.446;19.148;2024-01-16T12:32:49;6.07;39.82
71304;DHT22;59091;47.446;19.148;2024-01-16T12:35:20;5.97;40.02
71304;DHT22;59091;47.446;19.148;2024-01-16T12:37:58;6.16;39.77
71304;DHT22;59091;47.446;19.148;2024-01-16T12:40:23;6.06;39.76
71304;DHT22;59091;47.446;19.148;2024-01-16T12:42:50;6.24;40.04
71304;DHT22;59091;47.446;19.148;2024-01-16T12:45:17;6.10;38.86
71304;DHT22;59091;47.446;19.148;2024-01-16T12:47:43;5.97;39.09
71304;DHT22;59091;47.446;19.148;2024-01-16T12:50:10;5.90;39.48
71304;DHT22;59091;47.446;19.148;2024-01-16T12:52:35;6.13;39.63
71304;DHT22;59091;47.446;19.148;2024-01-16T12:55:01;6.16;39.61
71304;DHT22;59091;47.446;19.148;2024-01-16T12:57:29;6.23;39.26
71304;DHT22;59091;47.446;19.148;2024-01-16T12:59:55;6.26;39.70
71304;DHT22;59091;47.446;19.148;2024-01-16T13:02:23;6.30;39.75
71304;DHT22;59091;47.446;19.148;2024-01-16T13:04:56;6.34;38.92
71304;DHT22;59091;47.446;19.148;2024-01-16T13:07:24;5.96;39.03
71304;DHT22;59091;47.446;19.148;2024-01-16T13:09:50;6.10;38.48
71304;DHT22;59091;47.446;19.148;2024-01-16T13:12:21;5.93;38.65
71304;DHT22;59091;47.446;19.148;2024-01-16T13:14:47;5.93;38.13
71304;DHT22;59091;47.446;19.148;2024-01-16T13:17:12;5.99;37.77
71304;DHT22;59091;47.446;19.148;2024-01-16T13:19:39;5.82;37.87
71304;DHT22;59091;47.446;19.148;2024-01-16T13:22:05;5.59;38.51
71304;DHT22;59091;47.446;19.148;2024-01-16T13:24:32;5.82;38.69
71304;DHT22;59091;47.446;19.148;2024-01-16T13:26:57;5.76;38.11
71304;DHT22;59091;47.446;19.148;2024-01-16T13:29:23;5.67;38.41
71304;DHT22;59091;47.446;19.148;2024-01-16T13:31:49;5.70;38.64
71304;DHT22;59091;47.446;19.148;2024-01-16T13:34:19;5.80;38.64
71304;DHT22;59091;47.446;19.148;2024-01-16T13:36:48;5.79;38.13
71304;DHT22;59091;47.446;19.148;2024-01-16T13:39:14;5.75;38.61
71304;DHT22;59091;47.446;19.148;2024-01-16T13:41:39;5.82;38.42
71304;DHT22;59091;47.446;19.148;2024-01-16T13:44:05;5.80;38.72
71304;DHT22;59091;47.446;19.148;2024-01-16T13:46:31;5.75;37.75
71304;DHT22;59091;47.446;19.148;2024-01-16T13:48:56;5.72;38.25
71304;DHT22;59091;47.446;19.148;2024-01-16T13:51:22;5.87;38.07
71304;DHT22;59091;47.446;19.148;2024-01-16T13:53:47;5.89;37.92
71304;DHT22;59091;47.446;19.148;2024-01-16T13:56:13;5.87;38.02
71304;DHT22;59091;47.446;19.148;2024-01-16T13:58:38;5.97;38.21
71304;DHT22;59091;47.446;19.148;2024-01-16T14:01:04;6.00;37.21
71304;DHT22;59091;47.446;19.148;2024-01-16T14:03:29;5.77;36.98
71304;DHT22;59091;47.446;19.148;2024-01-16T14:05:55;5.76;36.90
71304;DHT22;59091;47.446;19.148;2024-01-16T14:08:21;5.77;36.87
71304;DHT22;59091;47.446;19.148;2024-01-16T14:10:46;5.72;37.06
71304;DHT22;59091;47.446;19.148;2024-01-16T14:13:12;5.73;37.08
71304;DHT22;59091;47.446;19.148;2024-01-16T14:15:38;5.51;37.17
71304;DHT22;59091;47.446;19.148;2024-01-16T14:18:04;5.52;36.70
71304;DHT22;59091;47.446;19.148;2024-01-16T14:20:29;5.51;36.67
71304;DHT22;59091;47.446;19.148;2024-01-16T14:22:55;5.45;36.99
71304;DHT22;59091;47.446;19.148;2024-01-16T14:25:21;5.54;37.17
71304;DHT22;59091;47.446;19.148;2024-01-16T14:27:57;5.45;37.00
71304;DHT22;59091;47.446;19.148;2024-01-16T14:30:29;5.45;37.39
71304;DHT22;59091;47.446;19.148;2024-01-16T14:32:55;5.48;39.08
71304;DHT22;59091;47.446;19.148;2024-01-16T14:35:22;5.36;37.83
71304;DHT22;59091;47.446;19.148;2024-01-16T14:37:49;5.32;38.67
71304;DHT22;59091;47.446;19.148;2024-01-16T14:40:15;5.41;38.37
71304;DHT22;59091;47.446;19.148;2024-01-16T14:42:53;5.41;38.21
71304;DHT22;59091;47.446;19.148;2024-01-16T14:45:20;5.36;38.48
71304;DHT22;59091;47.446;19.148;2024-01-16T14:47:46;5.18;39.16
71304;DHT22;59091;47.446;19.148;2024-01-16T14:50:12;5.28;38.86
71304;DHT22;59091;47.446;19.148;2024-01-16T14:52:42;5.20;39.45
71304;DHT22;59091;47.446;19.148;2024-01-16T14:55:09;5.13;39.13
71304;DHT22;59091;47.446;19.148;2024-01-16T14:57:34;5.18;39.98
71304;DHT22;59091;47.446;19.148;2024-01-16T15:00:10;4.97;40.00
71304;DHT22;59091;47.446;19.148;2024-01-16T15:02:40;4.84;40.53
71304;DHT22;59091;47.446;19.148;2024-01-16T15:05:05;4.84;40.58
71304;DHT22;59091;47.446;19.148;2024-01-16T15:07:32;4.91;40.61
71304;DHT22;59091;47.446;19.148;2024-01-16T15:09:57;4.69;40.78
71304;DHT22;59091;47.446;19.148;2024-01-16T15:12:22;4.63;40.74
71304;DHT22;59091;47.446;19.148;2024-01-16T15:14:48;4.70;40.78
71304;DHT22;59091;47.446;19.148;2024-01-16T15:17:13;4.57;41.01
71304;DHT22;59091;47.446;19.148;2024-01-16T15:19:39;4.49;41.05
71304;DHT22;59091;47.446;19.148;2024-01-16T15:22:04;4.63;41.14
71304;DHT22;59091;47.446;19.148;2024-01-16T15:24:30;4.72;41.16
71304;DHT22;59091;47.446;19.148;2024-01-16T15:26:56;4.77;40.94
71304;DHT22;59091;47.446;19.148;2024-01-16T15:29:25;4.67;40.91
71304;DHT22;59091;47.446;19.148;2024-01-16T15:31:51;4.87;45.63